Time;durP1;ratioP1;P1;durP2;ratioP2;P2;SDS_P1;SDS_P2;PMS_P1;PMS_P2;Temp;Humidity;BMP_temperature;BMP_pressure;BME280_temperature;BME280_humidity;BME280_pressure;Samples;Min_cycle;Max_cycle;Signal;HPM_P1;HPM_P2
2021/08/04 00:01:43;;;;;;;12.17;10.90;;;16.60;99.90;;;;;;5100643;27;20524;-80
2021/08/04 00:04:10;;;;;;;11.37;10.27;;;16.50;99.90;;;;;;5096765;28;20478;-79
2021/08/04 00:06:38;;;;;;;16.33;11.63;;;16.50;99.90;;;;;;5104398;28;21031;-79
2021/08/04 00:09:05;;;;;;;12.03;10.80;;;16.50;99.90;;;;;;5104417;28;20547;-80
2021/08/04 00:11:32;;;;;;;10.63;9.63;;;16.50;99.90;;;;;;5102214;28;20777;-78
2021/08/04 00:13:59;;;;;;;11.30;10.20;;;16.40;99.90;;;;;;5104977;28;20458;-78
2021/08/04 00:16:27;;;;;;;11.17;10.10;;;16.40;99.90;;;;;;5094548;28;20455;-79
2021/08/04 00:18:54;;;;;;;13.67;12.47;;;16.40;99.90;;;;;;5108103;28;20488;-79
2021/08/04 00:21:21;;;;;;;12.13;11.00;;;16.40;99.90;;;;;;5106755;28;20461;-79
2021/08/04 00:23:48;;;;;;;12.77;11.40;;;16.40;99.90;;;;;;5099611;28;20454;-80
2021/08/04 00:26:15;;;;;;;12.40;11.20;;;16.30;99.90;;;;;;5103887;28;20464;-79
2021/08/04 00:28:42;;;;;;;11.10;10.00;;;16.30;99.90;;;;;;5102418;28;20477;-79
2021/08/04 00:31:09;;;;;;;10.83;9.83;;;16.30;99.90;;;;;;5103423;28;20815;-82
2021/08/04 00:33:37;;;;;;;18.73;9.70;;;16.20;99.90;;;;;;5102852;28;20477;-79
2021/08/04 00:36:05;;;;;;;10.83;9.53;;;16.20;99.90;;;;;;5102760;28;20465;-79
2021/08/04 00:38:32;;;;;;;8.87;8.10;;;16.20;99.90;;;;;;5099531;28;20465;-79
2021/08/04 00:40:58;;;;;;;10.43;8.93;;;16.10;99.90;;;;;;5100070;28;20962;-80
2021/08/04 00:43:25;;;;;;;10.43;9.43;;;16.10;99.90;;;;;;5101894;28;20472;-79
2021/08/04 00:45:52;;;;;;;11.07;10.07;;;16.10;99.90;;;;;;5096215;28;20473;-79
2021/08/04 00:48:19;;;;;;;10.50;9.40;;;16.00;99.90;;;;;;5106902;28;20461;-80
2021/08/04 00:50:48;;;;;;;10.80;9.80;;;16.00;99.90;;;;;;5094282;28;20476;-79
2021/08/04 00:53:19;;;;;;;12.50;9.67;;;15.90;99.90;;;;;;5098367;28;21195;-79
2021/08/04 00:55:46;;;;;;;9.40;8.50;;;15.90;99.90;;;;;;5102126;28;20454;-81
2021/08/04 00:58:13;;;;;;;12.27;11.07;;;15.90;99.90;;;;;;5103049;28;20491;-79
2021/08/04 01:00:45;;;;;;;11.50;9.60;;;15.80;99.90;;;;;;5099838;28;20478;-79
2021/08/04 01:03:16;;;;;;;11.47;10.40;;;15.80;99.90;;;;;;5099151;28;20956;-81
2021/08/04 01:05:53;;;;;;;11.20;10.20;;;15.80;99.90;;;;;;5094326;28;20519;-79
2021/08/04 01:08:27;;;;;;;10.60;9.70;;;15.70;99.90;;;;;;5101690;28;20483;-79
2021/08/04 01:10:55;;;;;;;14.03;10.60;;;15.70;99.90;;;;;;5101413;28;20459;-79
2021/08/04 01:13:28;;;;;;;10.87;9.77;;;15.70;99.90;;;;;;5096205;28;20466;-79
2021/08/04 01:16:03;;;;;;;10.93;9.83;;;15.70;99.90;;;;;;5105938;28;21210;-80
2021/08/04 01:18:39;;;;;;;11.50;9.70;;;15.60;99.90;;;;;;5102867;28;20472;-80
2021/08/04 01:21:10;;;;;;;12.30;11.10;;;15.60;99.90;;;;;;5099185;28;20464;-82
2021/08/04 01:23:43;;;;;;;10.00;9.10;;;15.60;99.90;;;;;;5099657;28;20465;-79
2021/08/04 01:26:19;;;;;;;10.87;9.87;;;15.60;99.90;;;;;;5101409;28;20460;-79
2021/08/04 01:28:49;;;;;;;11.87;10.73;;;15.60;99.90;;;;;;5102392;28;20464;-80
2021/08/04 01:31:19;;;;;;;12.23;11.03;;;15.60;99.90;;;;;;5097486;28;20473;-79
2021/08/04 01:33:48;;;;;;;13.90;10.63;;;15.60;99.90;;;;;;5098748;28;20469;-79
2021/08/04 01:36:15;;;;;;;12.23;11.10;;;15.50;99.90;;;;;;5099612;28;20460;-79
2021/08/04 01:38:43;;;;;;;11.43;10.43;;;15.50;99.90;;;;;;5096724;28;20991;-80
2021/08/04 01:41:11;;;;;;;13.50;11.13;;;15.50;99.90;;;;;;5101007;28;21310;-79
2021/08/04 01:43:41;;;;;;;13.17;11.10;;;15.50;99.90;;;;;;5102430;28;20465;-79
2021/08/04 01:46:10;;;;;;;12.17;11.07;;;15.50;99.90;;;;;;5104465;28;20444;-79
2021/08/04 01:48:39;;;;;;;11.73;10.60;;;15.50;99.90;;;;;;5094009;28;20460;-79
2021/08/04 01:51:10;;;;;;;11.80;10.60;;;15.50;99.90;;;;;;5096407;28;20457;-80
2021/08/04 01:53:38;;;;;;;13.07;10.87;;;15.50;99.90;;;;;;5101751;28;20476;-78
2021/08/04 01:56:06;;;;;;;16.10;10.40;;;15.40;99.90;;;;;;5095479;28;20493;-81
2021/08/04 01:58:33;;;;;;;12.23;11.13;;;15.50;99.90;;;;;;5102421;28;20568;-79
2021/08/04 02:01:01;;;;;;;12.27;11.00;;;15.50;99.90;;;;;;5098453;28;20477;-80
2021/08/04 02:03:28;;;;;;;11.80;10.70;;;15.40;99.90;;;;;;5105112;28;20475;-79
2021/08/04 02:05:55;;;;;;;11.67;10.57;;;15.40;99.90;;;;;;5098335;28;20464;-80
2021/08/04 02:08:29;;;;;;;11.27;9.97;;;15.40;99.90;;;;;;5098895;28;20468;-81
2021/08/04 02:11:03;;;;;;;15.10;10.60;;;15.40;99.90;;;;;;5094635;28;20461;-79
2021/08/04 02:13:33;;;;;;;11.87;10.70;;;15.40;99.90;;;;;;5098478;28;20546;-79
2021/08/04 02:16:14;;;;;;;12.40;11.30;;;15.40;99.90;;;;;;5094056;28;20463;-79
2021/08/04 02:18:47;;;;;;;18.30;10.60;;;15.40;99.90;;;;;;5098513;28;20469;-79
2021/08/04 02:21:17;;;;;;;12.37;10.70;;;15.40;99.90;;;;;;5104111;28;20459;-81
2021/08/04 02:23:46;;;;;;;11.57;10.47;;;15.40;99.90;;;;;;5099408;28;20461;-81
2021/08/04 02:26:16;;;;;;;15.90;11.10;;;15.40;99.90;;;;;;5096986;28;20964;-81
2021/08/04 02:28:47;;;;;;;12.03;10.83;;;15.40;99.90;;;;;;5101426;28;20490;-79
2021/08/04 02:31:17;;;;;;;12.70;10.70;;;15.40;99.90;;;;;;5099696;28;20465;-79
2021/08/04 02:33:45;;;;;;;12.60;11.30;;;15.40;99.90;;;;;;5102396;28;20476;-80
2021/08/04 02:36:12;;;;;;;12.30;11.13;;;15.40;99.90;;;;;;5096971;28;20454;-80
2021/08/04 02:38:40;;;;;;;13.93;12.60;;;15.40;99.90;;;;;;5097401;28;21061;-79
2021/08/04 02:41:08;;;;;;;12.47;11.17;;;15.40;99.90;;;;;;5098858;28;20457;-79
2021/08/04 02:43:35;;;;;;;10.50;9.40;;;15.40;99.90;;;;;;5100348;28;20453;-78
2021/08/04 02:46:04;;;;;;;10.20;9.30;;;15.40;99.90;;;;;;5101612;28;20467;-80
2021/08/04 02:48:34;;;;;;;10.53;9.50;;;15.40;99.90;;;;;;5100834;28;20447;-80
2021/08/04 02:51:05;;;;;;;9.70;8.80;;;15.40;99.90;;;;;;5094413;28;20547;-79
2021/08/04 02:53:32;;;;;;;12.07;10.07;;;15.40;99.90;;;;;;5094430;28;20515;-80
2021/08/04 02:55:59;;;;;;;9.40;8.60;;;15.40;99.90;;;;;;5102632;28;20456;-78
2021/08/04 02:58:26;;;;;;;9.40;8.60;;;15.30;99.90;;;;;;5100527;28;20480;-78
2021/08/04 03:00:54;;;;;;;9.60;8.60;;;15.30;99.90;;;;;;5107813;28;20473;-79
2021/08/04 03:03:21;;;;;;;9.80;8.90;;;15.30;99.90;;;;;;5095707;28;20460;-80
2021/08/04 03:05:49;;;;;;;10.57;9.63;;;15.30;99.90;;;;;;5101887;28;20465;-79
2021/08/04 03:08:16;;;;;;;9.73;8.87;;;15.30;99.90;;;;;;5095339;28;20974;-78
2021/08/04 03:10:43;;;;;;;9.80;8.90;;;15.30;99.90;;;;;;5097872;28;20555;-80
2021/08/04 03:13:10;;;;;;;10.40;8.33;;;15.20;99.90;;;;;;5102370;28;20456;-82
2021/08/04 03:15:37;;;;;;;10.70;9.60;;;15.20;99.90;;;;;;5098862;28;20460;-82
2021/08/04 03:18:04;;;;;;;9.77;8.37;;;15.20;99.90;;;;;;5094843;28;20764;-81
2021/08/04 03:20:31;;;;;;;9.60;8.60;;;15.10;99.90;;;;;;5102660;28;20489;-78
2021/08/04 03:22:59;;;;;;;10.03;8.93;;;15.10;99.90;;;;;;5099958;28;20853;-79
2021/08/04 03:25:26;;;;;;;8.87;8.17;;;15.10;99.90;;;;;;5101017;28;20555;-79
2021/08/04 03:27:53;;;;;;;9.70;8.83;;;15.10;99.90;;;;;;5100425;28;20511;-81
2021/08/04 03:30:20;;;;;;;9.40;8.53;;;15.00;99.90;;;;;;5105881;28;20549;-79
2021/08/04 03:32:47;;;;;;;9.50;8.50;;;15.00;99.90;;;;;;5105271;28;20464;-81
2021/08/04 03:35:14;;;;;;;9.83;8.60;;;14.90;99.90;;;;;;5100362;28;20469;-78
2021/08/04 03:37:41;;;;;;;11.73;10.60;;;14.90;99.90;;;;;;5106405;28;20456;-82
2021/08/04 03:40:11;;;;;;;14.00;10.90;;;14.90;99.90;;;;;;5103528;28;20945;-79
2021/08/04 03:42:39;;;;;;;15.93;12.23;;;14.80;99.90;;;;;;5106020;28;20451;-78
2021/08/04 03:45:07;;;;;;;14.40;12.63;;;14.80;99.90;;;;;;5102395;28;20460;-79
2021/08/04 03:47:35;;;;;;;15.10;13.60;;;14.90;99.90;;;;;;5099229;28;20463;-79
2021/08/04 03:50:01;;;;;;;15.83;14.13;;;14.80;99.90;;;;;;5102085;28;20456;-70
2021/08/04 03:52:28;;;;;;;14.43;12.90;;;14.90;99.90;;;;;;5100242;28;20861;-70
2021/08/04 03:54:55;;;;;;;15.77;14.10;;;14.80;99.90;;;;;;5103042;28;20453;-70
2021/08/04 03:57:24;;;;;;;14.60;13.20;;;14.90;99.90;;;;;;5101790;28;20467;-71
2021/08/04 03:59:50;;;;;;;13.97;12.57;;;14.90;99.90;;;;;;5094975;27;20491;-81
2021/08/04 04:02:17;;;;;;;15.10;13.60;;;14.80;99.90;;;;;;5097487;27;20497;-78
2021/08/04 04:04:44;;;;;;;14.23;12.60;;;14.80;99.90;;;;;;5099218;27;20477;-82
2021/08/04 04:07:12;;;;;;;16.30;13.20;;;14.80;99.90;;;;;;5100930;27;20522;-79
2021/08/04 04:09:39;;;;;;;16.07;14.47;;;14.90;99.90;;;;;;5088270;27;20461;-78
2021/08/04 04:12:07;;;;;;;17.47;15.63;;;14.90;99.90;;;;;;5085018;28;20465;-79
2021/08/04 04:14:35;;;;;;;19.50;15.77;;;14.90;99.90;;;;;;5099820;28;20925;-79
2021/08/04 04:17:02;;;;;;;17.27;15.13;;;14.90;99.90;;;;;;5095777;28;20465;-78
2021/08/04 04:19:29;;;;;;;18.07;16.37;;;14.90;99.90;;;;;;5098075;28;20479;-78
2021/08/04 04:21:56;;;;;;;15.97;14.47;;;14.90;99.90;;;;;;5096409;28;20460;-79
2021/08/04 04:24:23;;;;;;;15.33;13.10;;;14.90;99.90;;;;;;5096974;28;20855;-80
2021/08/04 04:26:50;;;;;;;16.47;14.67;;;14.90;99.90;;;;;;5100447;28;20466;-82
2021/08/04 04:29:17;;;;;;;20.03;14.20;;;14.90;99.90;;;;;;5095534;28;20452;-78
2021/08/04 04:31:45;;;;;;;16.47;14.87;;;14.90;99.90;;;;;;5094784;28;20460;-79
2021/08/04 04:34:12;;;;;;;17.73;15.87;;;14.90;99.90;;;;;;5091670;28;20452;-79
2021/08/04 04:36:39;;;;;;;15.90;14.30;;;14.90;99.90;;;;;;5093074;28;20468;-79
2021/08/04 04:39:06;;;;;;;23.23;15.23;;;14.90;99.90;;;;;;5099695;28;20559;-79
2021/08/04 04:41:33;;;;;;;17.93;15.23;;;15.00;99.90;;;;;;5090461;28;21252;-81
2021/08/04 04:44:00;;;;;;;17.83;16.07;;;15.00;99.90;;;;;;5097881;28;20464;-79
2021/08/04 04:46:27;;;;;;;23.57;15.47;;;15.00;99.90;;;;;;5093357;28;20476;-79
2021/08/04 04:48:56;;;;;;;16.87;14.10;;;15.00;99.90;;;;;;5094469;28;20461;-79
2021/08/04 04:51:23;;;;;;;16.67;14.97;;;15.00;99.90;;;;;;5096620;28;20588;-79
2021/08/04 04:53:50;;;;;;;20.73;14.80;;;15.10;99.90;;;;;;5098081;28;20829;-80
2021/08/04 04:56:18;;;;;;;18.20;16.30;;;15.10;99.90;;;;;;5095314;28;20461;-81
2021/08/04 04:58:45;;;;;;;19.30;16.27;;;15.10;99.90;;;;;;5093881;28;20487;-79
2021/08/04 05:01:11;;;;;;;22.97;16.90;;;15.20;99.90;;;;;;5093759;27;20492;-78
2021/08/04 05:03:38;;;;;;;23.80;15.70;;;15.20;99.90;;;;;;5092632;28;20458;-79
2021/08/04 05:06:06;;;;;;;17.33;15.53;;;15.20;99.90;;;;;;5099202;28;20460;-79
2021/08/04 05:08:34;;;;;;;19.70;16.00;;;15.30;99.90;;;;;;5100840;28;20469;-79
2021/08/04 05:11:00;;;;;;;18.20;15.60;;;15.30;99.90;;;;;;5104448;28;20467;-80
2021/08/04 05:13:27;;;;;;;16.50;14.20;;;15.40;99.90;;;;;;5099423;28;20468;-81
2021/08/04 05:15:54;;;;;;;14.90;13.30;;;15.40;99.90;;;;;;5097943;28;20882;-79
2021/08/04 05:18:21;;;;;;;17.47;14.90;;;15.40;99.90;;;;;;5091983;28;20733;-79
2021/08/04 05:20:48;;;;;;;17.10;14.77;;;15.40;99.90;;;;;;5099050;28;20496;-79
2021/08/04 05:23:16;;;;;;;17.07;13.83;;;15.40;99.90;;;;;;5100654;28;20453;-78
2021/08/04 05:25:43;;;;;;;18.80;15.10;;;15.40;99.90;;;;;;5098936;28;20808;-82
2021/08/04 05:28:10;;;;;;;17.57;15.27;;;15.50;99.90;;;;;;5092627;28;20457;-78
2021/08/04 05:30:36;;;;;;;17.93;14.03;;;15.50;99.90;;;;;;5094889;28;20472;-79
2021/08/04 05:33:03;;;;;;;16.97;15.17;;;15.50;99.90;;;;;;5095021;28;20453;-78
2021/08/04 05:35:30;;;;;;;21.73;16.50;;;15.50;99.90;;;;;;5097796;28;20505;-79
2021/08/04 05:37:57;;;;;;;20.20;17.03;;;15.50;99.90;;;;;;5098655;28;20467;-80
2021/08/04 05:40:26;;;;;;;19.30;17.30;;;15.50;99.90;;;;;;5096762;28;20497;-78
2021/08/04 05:42:52;;;;;;;19.77;17.70;;;15.60;99.90;;;;;;5096067;28;20457;-80
2021/08/04 05:45:19;;;;;;;18.83;16.87;;;15.60;99.90;;;;;;5096641;28;20458;-80
2021/08/04 05:47:46;;;;;;;20.97;18.63;;;15.70;99.90;;;;;;5098388;28;20982;-78
2021/08/04 05:50:13;;;;;;;22.47;19.00;;;15.70;99.90;;;;;;5097588;28;20813;-79
2021/08/04 05:52:40;;;;;;;21.80;19.27;;;15.70;99.90;;;;;;5094271;28;20522;-79
2021/08/04 05:55:08;;;;;;;24.17;19.13;;;15.80;99.90;;;;;;5092305;28;20513;-79
2021/08/04 05:57:38;;;;;;;23.90;19.97;;;15.80;99.90;;;;;;5095467;28;20593;-79
2021/08/04 06:00:07;;;;;;;23.73;19.10;;;15.90;99.90;;;;;;5085602;28;20500;-79
2021/08/04 06:02:34;;;;;;;22.87;19.33;;;15.90;99.90;;;;;;5086664;28;20458;-79
2021/08/04 06:05:01;;;;;;;28.77;21.47;;;15.90;99.90;;;;;;5093619;28;20496;-78
2021/08/04 06:07:28;;;;;;;28.10;21.60;;;15.90;99.90;;;;;;5093090;28;20454;-79
2021/08/04 06:09:54;;;;;;;24.13;21.47;;;16.00;99.90;;;;;;5094351;28;20457;-81
2021/08/04 06:12:21;;;;;;;25.03;22.37;;;16.00;99.90;;;;;;5098737;28;20462;-79
2021/08/04 06:14:49;;;;;;;30.77;23.70;;;16.00;99.90;;;;;;5094208;28;20501;-79
2021/08/04 06:17:16;;;;;;;28.70;24.27;;;16.10;99.90;;;;;;5096073;28;20513;-78
2021/08/04 06:19:43;;;;;;;24.83;22.23;;;16.10;99.90;;;;;;5093449;28;20457;-81
2021/08/04 06:22:10;;;;;;;27.00;23.93;;;16.20;99.90;;;;;;5096812;28;20461;-79
2021/08/04 06:24:37;;;;;;;27.63;23.70;;;16.20;99.90;;;;;;5099806;28;20467;-79
2021/08/04 06:27:05;;;;;;;28.90;24.57;;;16.30;99.90;;;;;;5092777;28;20545;-81
2021/08/04 06:29:31;;;;;;;34.50;26.57;;;16.30;99.90;;;;;;5093967;28;20552;-79
2021/08/04 06:32:00;;;;;;;35.13;27.20;;;16.40;99.90;;;;;;5095600;28;20457;-79
2021/08/04 06:34:27;;;;;;;32.60;27.10;;;16.40;99.90;;;;;;5091547;28;20457;-80
2021/08/04 06:36:54;;;;;;;32.17;26.27;;;16.50;99.90;;;;;;5090380;28;20492;-80
2021/08/04 06:39:21;;;;;;;29.23;25.37;;;16.60;99.90;;;;;;5099003;28;20494;-80
2021/08/04 06:41:47;;;;;;;29.70;26.50;;;16.60;99.90;;;;;;5095178;28;20490;-81
2021/08/04 06:44:14;;;;;;;30.70;26.40;;;16.70;99.90;;;;;;5086756;28;20499;-81
2021/08/04 06:46:41;;;;;;;30.20;25.20;;;16.70;99.90;;;;;;5092331;28;20462;-81
2021/08/04 06:49:09;;;;;;;32.10;27.30;;;16.80;99.90;;;;;;5094788;28;20462;-81
2021/08/04 06:51:37;;;;;;;31.23;26.37;;;16.90;99.90;;;;;;5098659;28;21066;-82
2021/08/04 06:54:04;;;;;;;28.90;25.90;;;16.90;99.90;;;;;;5091310;28;20466;-83
2021/08/04 06:56:31;;;;;;;27.37;24.57;;;17.00;99.90;;;;;;5096485;28;20453;-80
2021/08/04 06:58:58;;;;;;;28.20;25.03;;;17.10;99.90;;;;;;5098280;28;20464;-81
2021/08/04 07:01:25;;;;;;;33.37;25.27;;;17.10;99.90;;;;;;5099603;28;20581;-82
2021/08/04 07:03:52;;;;;;;26.67;23.90;;;17.20;99.90;;;;;;5094497;28;20520;-81
2021/08/04 07:06:21;;;;;;;23.50;21.20;;;17.30;99.90;;;;;;5101409;28;20807;-81
2021/08/04 07:08:47;;;;;;;27.03;21.97;;;17.30;99.90;;;;;;5104194;28;20457;-81
2021/08/04 07:11:14;;;;;;;24.67;22.07;;;17.40;99.90;;;;;;5099037;28;20465;-81
2021/08/04 07:13:41;;;;;;;28.10;20.63;;;17.40;99.90;;;;;;5093861;28;20466;-82
2021/08/04 07:16:08;;;;;;;23.93;20.70;;;17.50;99.90;;;;;;5102369;28;20461;-83
2021/08/04 07:18:35;;;;;;;29.83;20.83;;;17.60;99.90;;;;;;5095895;28;20824;-80
2021/08/04 07:21:02;;;;;;;24.83;19.90;;;17.60;99.90;;;;;;5101014;28;20568;-81
2021/08/04 07:23:30;;;;;;;24.30;20.03;;;17.60;99.90;;;;;;5100285;28;20810;-81
2021/08/04 07:25:57;;;;;;;23.20;19.50;;;17.70;99.90;;;;;;5101581;28;20562;-80
2021/08/04 07:28:24;;;;;;;21.57;19.43;;;17.70;99.90;;;;;;5096017;28;20464;-79
2021/08/04 07:30:51;;;;;;;18.93;16.93;;;17.80;99.90;;;;;;5096073;28;20468;-79
2021/08/04 07:33:18;;;;;;;23.93;19.90;;;17.90;99.90;;;;;;5092387;28;20469;-79
2021/08/04 07:35:45;;;;;;;29.33;19.50;;;17.90;99.90;;;;;;5088583;28;20492;-81
2021/08/04 07:38:12;;;;;;;23.03;17.87;;;18.00;99.90;;;;;;5096474;28;20464;-78
2021/08/04 07:40:42;;;;;;;20.90;18.70;;;18.00;99.90;;;;;;5098535;28;20491;-81
2021/08/04 07:43:09;;;;;;;19.50;16.40;;;18.10;99.90;;;;;;5094964;28;20467;-79
2021/08/04 07:45:36;;;;;;;21.90;16.93;;;18.10;99.90;;;;;;5091103;28;20838;-79
2021/08/04 07:48:03;;;;;;;22.20;14.80;;;18.20;99.90;;;;;;5088229;27;20795;-79
2021/08/04 07:50:30;;;;;;;18.93;14.03;;;18.20;99.90;;;;;;5095445;28;20542;-81
2021/08/04 07:52:57;;;;;;;16.70;14.60;;;18.30;99.90;;;;;;5098303;28;20533;-83
2021/08/04 07:55:24;;;;;;;20.17;14.30;;;18.40;99.90;;;;;;5093683;28;20472;-80
2021/08/04 07:57:52;;;;;;;18.57;13.30;;;18.50;99.90;;;;;;5098577;28;20982;-84
2021/08/04 08:00:19;;;;;;;14.60;12.97;;;18.50;99.90;;;;;;5099295;27;20461;-81
2021/08/04 08:02:45;;;;;;;13.20;11.90;;;18.60;99.90;;;;;;5089249;28;20448;-80
2021/08/04 08:05:12;;;;;;;16.43;11.10;;;18.70;99.90;;;;;;5101373;28;20465;-80
2021/08/04 08:07:46;;;;;;;11.73;10.63;;;18.70;99.90;;;;;;5105158;28;20474;-79
2021/08/04 08:10:14;;;;;;;11.80;10.60;;;18.80;99.90;;;;;;5098703;28;20508;-79
2021/08/04 08:12:41;;;;;;;12.10;10.57;;;18.90;99.90;;;;;;5102942;28;20547;-79
2021/08/04 08:15:11;;;;;;;10.70;9.60;;;19.00;99.90;;;;;;5098306;28;21237;-80
2021/08/04 08:17:38;;;;;;;11.17;9.93;;;19.00;99.90;;;;;;5102911;28;20966;-81
2021/08/04 08:20:06;;;;;;;13.03;9.30;;;19.10;99.90;;;;;;5098182;28;20862;-81
2021/08/04 08:22:33;;;;;;;10.47;7.77;;;19.20;99.90;;;;;;5101627;28;20495;-81
2021/08/04 08:25:00;;;;;;;14.50;8.93;;;19.30;99.90;;;;;;5093083;28;20457;-81
2021/08/04 08:27:27;;;;;;;12.67;7.80;;;19.30;99.90;;;;;;5102817;28;20823;-83
2021/08/04 08:29:54;;;;;;;10.47;8.30;;;19.50;99.90;;;;;;5099441;28;20485;-81
2021/08/04 08:32:26;;;;;;;13.30;9.70;;;19.60;99.90;;;;;;5103693;28;20447;-81
2021/08/04 08:34:53;;;;;;;11.17;9.00;;;19.70;99.90;;;;;;5103716;28;20986;-80
2021/08/04 08:37:20;;;;;;;10.30;9.30;;;19.70;99.90;;;;;;5099183;28;20545;-79
2021/08/04 08:39:47;;;;;;;10.47;9.17;;;19.80;99.90;;;;;;5096897;28;20543;-80
2021/08/04 08:42:14;;;;;;;9.37;7.83;;;19.80;99.90;;;;;;5103735;28;20541;-81
2021/08/04 08:44:41;;;;;;;10.97;8.40;;;19.90;99.90;;;;;;5095414;28;20453;-80
2021/08/04 08:47:09;;;;;;;11.23;8.90;;;20.00;99.90;;;;;;5098395;28;20472;-81
2021/08/04 08:49:38;;;;;;;11.13;8.10;;;20.10;99.90;;;;;;5100102;28;20456;-80
2021/08/04 08:52:06;;;;;;;8.63;7.83;;;20.10;99.90;;;;;;5098863;28;20822;-80
2021/08/04 08:54:33;;;;;;;8.97;7.50;;;20.20;99.90;;;;;;5100560;28;20957;-80
2021/08/04 08:57:00;;;;;;;8.20;7.40;;;20.20;99.90;;;;;;5099608;28;20468;-79
2021/08/04 08:59:27;;;;;;;11.07;7.20;;;20.30;99.90;;;;;;5095238;28;20472;-81
2021/08/04 09:01:54;;;;;;;11.97;6.90;;;20.40;99.90;;;;;;5097871;28;21052;-81
2021/08/04 09:04:21;;;;;;;7.07;6.37;;;20.50;99.90;;;;;;5096975;28;20453;-80
2021/08/04 09:06:54;;;;;;;11.07;6.47;;;20.60;99.90;;;;;;5093998;28;20464;-80
2021/08/04 09:09:23;;;;;;;14.20;7.20;;;20.70;99.90;;;;;;5097413;28;20465;-80
2021/08/04 09:11:53;;;;;;;10.27;7.10;;;20.80;99.90;;;;;;5099604;28;20458;-80
2021/08/04 09:14:27;;;;;;;8.87;6.87;;;20.90;99.90;;;;;;5100441;28;20997;-80
2021/08/04 09:17:03;;;;;;;9.73;7.80;;;21.00;99.90;;;;;;5097176;28;20460;-80
2021/08/04 09:19:31;;;;;;;14.50;8.60;;;21.00;99.90;;;;;;5096204;28;21003;-80
2021/08/04 09:22:12;;;;;;;10.00;8.00;;;21.10;99.90;;;;;;5101709;28;20476;-80
2021/08/04 09:25:08;;;;;;;10.23;9.23;;;21.10;99.90;;;;;;5099568;28;20485;-80
2021/08/04 09:27:40;;;;;;;12.43;9.57;;;21.10;99.90;;;;;;5100998;28;20472;-80
2021/08/04 09:30:09;;;;;;;15.43;12.83;;;21.20;99.90;;;;;;5100839;28;20457;-79
2021/08/04 09:32:36;;;;;;;13.57;11.00;;;21.30;99.90;;;;;;5100234;28;20459;-82
2021/08/04 09:35:08;;;;;;;14.07;11.87;;;21.30;99.90;;;;;;5103510;28;20890;-80
2021/08/04 09:37:37;;;;;;;11.17;10.00;;;21.40;99.90;;;;;;5099209;28;20459;-80
2021/08/04 09:40:05;;;;;;;15.27;10.10;;;21.50;99.90;;;;;;5102284;28;20484;-80
2021/08/04 09:42:48;;;;;;;12.10;9.97;;;21.50;99.90;;;;;;5095229;28;21013;-82
2021/08/04 09:45:16;;;;;;;13.30;9.43;;;21.50;99.90;;;;;;5104494;28;21105;-80
2021/08/04 09:47:58;;;;;;;13.60;9.63;;;21.50;99.90;;;;;;5098804;28;20846;-81
2021/08/04 09:50:25;;;;;;;11.43;9.90;;;21.50;99.90;;;;;;5098549;28;20457;-80
2021/08/04 09:52:58;;;;;;;11.50;9.70;;;21.50;99.90;;;;;;5099168;28;20536;-79
2021/08/04 09:55:25;;;;;;;10.10;8.37;;;21.60;99.90;;;;;;5101174;28;20475;-80
2021/08/04 09:57:55;;;;;;;12.50;9.27;;;21.70;99.90;;;;;;5099349;28;20462;-82
2021/08/04 10:00:23;;;;;;;9.00;8.10;;;21.80;99.90;;;;;;5096265;27;20535;-80
2021/08/04 10:02:50;;;;;;;9.87;8.83;;;21.90;99.90;;;;;;5078305;28;21003;-80
2021/08/04 10:05:20;;;;;;;11.00;8.47;;;22.00;99.90;;;;;;5090028;28;20807;-82
2021/08/04 10:08:10;;;;;;;10.87;9.10;;;22.10;99.90;;;;;;5086327;28;20458;-80
2021/08/04 10:10:39;;;;;;;9.60;8.67;;;22.20;99.90;;;;;;5080783;28;20450;-81
2021/08/04 10:13:08;;;;;;;10.50;8.83;;;22.30;99.90;;;;;;5097360;28;20484;-83
2021/08/04 10:15:41;;;;;;;10.97;8.97;;;22.30;99.90;;;;;;5092880;28;20468;-80
2021/08/04 10:18:12;;;;;;;10.30;9.30;;;22.40;99.90;;;;;;5096193;28;20800;-80
2021/08/04 10:20:39;;;;;;;11.13;10.03;;;22.50;99.90;;;;;;5092500;28;20453;-82
2021/08/04 10:23:07;;;;;;;11.40;9.87;;;22.50;99.90;;;;;;5094773;28;20484;-81
2021/08/04 10:25:36;;;;;;;12.20;9.10;;;22.60;99.90;;;;;;5094342;28;20467;-83
2021/08/04 10:28:04;;;;;;;12.53;11.23;;;22.70;99.90;;;;;;5097924;28;20458;-80
2021/08/04 10:30:32;;;;;;;11.30;10.13;;;22.60;99.90;;;;;;5100419;28;20468;-80
2021/08/04 10:32:59;;;;;;;12.77;11.00;;;22.50;99.90;;;;;;5101491;28;20453;-83
2021/08/04 10:35:27;;;;;;;12.40;11.07;;;22.50;99.90;;;;;;5095080;28;20495;-82
2021/08/04 10:37:55;;;;;;;12.00;10.77;;;22.40;99.90;;;;;;5094250;28;20465;-80
2021/08/04 10:40:25;;;;;;;12.43;11.23;;;22.40;99.90;;;;;;5091193;28;20481;-80
2021/08/04 10:42:54;;;;;;;12.80;11.50;;;22.30;99.90;;;;;;5098138;28;20742;-82
2021/08/04 10:45:39;;;;;;;10.67;9.67;;;22.20;99.90;;;;;;5095746;28;20453;-80
2021/08/04 10:48:23;;;;;;;13.17;10.70;;;22.10;99.90;;;;;;5100908;28;20464;-81
2021/08/04 10:51:12;;;;;;;12.80;11.50;;;22.10;99.90;;;;;;5094209;28;20510;-80
2021/08/04 10:54:17;;;;;;;15.07;11.43;;;22.00;99.90;;;;;;5090197;28;20460;-80
2021/08/04 10:57:10;;;;;;;14.23;11.60;;;22.00;99.90;;;;;;5099957;28;20460;-81
2021/08/04 10:59:39;;;;;;;13.03;11.73;;;21.90;99.90;;;;;;5097027;28;20463;-82
2021/08/04 11:02:34;;;;;;;14.53;11.00;;;21.90;99.90;;;;;;5095211;28;20503;-80
2021/08/04 11:05:01;;;;;;;10.70;9.80;;;21.80;99.90;;;;;;5096891;28;20455;-80
2021/08/04 11:07:30;;;;;;;11.00;9.80;;;21.80;99.90;;;;;;5102302;28;20552;-82
2021/08/04 11:09:59;;;;;;;13.80;11.40;;;21.80;99.90;;;;;;5100298;28;20493;-79
2021/08/04 11:12:50;;;;;;;12.70;11.60;;;21.80;99.90;;;;;;5103365;28;20461;-81
2021/08/04 11:15:30;;;;;;;14.40;13.00;;;21.90;99.90;;;;;;5082401;28;20461;-80
2021/08/04 11:18:02;;;;;;;12.27;11.07;;;21.80;99.90;;;;;;5097698;28;20771;-82
2021/08/04 11:20:29;;;;;;;12.60;11.30;;;21.80;99.90;;;;;;5100047;28;20453;-82
2021/08/04 11:22:56;;;;;;;13.43;11.83;;;21.80;99.90;;;;;;5096144;28;20487;-82
2021/08/04 11:25:32;;;;;;;12.50;11.30;;;21.80;99.90;;;;;;5099842;28;20468;-81
2021/08/04 11:28:27;;;;;;;11.33;10.03;;;21.80;99.90;;;;;;5094583;28;20457;-82
2021/08/04 11:31:10;;;;;;;12.07;10.87;;;21.80;99.90;;;;;;5086222;28;20461;-82
2021/08/04 11:33:37;;;;;;;16.97;11.07;;;21.90;99.90;;;;;;5102006;28;20487;-80
2021/08/04 11:36:16;;;;;;;16.80;12.57;;;21.90;99.90;;;;;;5097661;28;20800;-81
2021/08/04 11:38:46;;;;;;;34.23;30.60;;;21.90;99.90;;;;;;5094417;28;20490;-80
2021/08/04 11:41:15;;;;;;;48.60;41.10;;;21.90;99.90;;;;;;5095835;28;20464;-80
2021/08/04 11:43:42;;;;;;;20.10;18.10;;;21.90;99.90;;;;;;5094879;28;21038;-81
2021/08/04 11:46:27;;;;;;;16.13;13.93;;;21.90;99.90;;;;;;5099267;28;20457;-81
2021/08/04 11:48:54;;;;;;;14.70;12.43;;;21.90;99.90;;;;;;5092835;28;20550;-79
2021/08/04 11:51:35;;;;;;;13.17;11.87;;;22.00;99.90;;;;;;5095673;28;20555;-79
2021/08/04 11:54:02;;;;;;;11.73;10.70;;;22.00;99.90;;;;;;5091907;28;20457;-80
2021/08/04 11:56:29;;;;;;;12.93;11.93;;;22.00;99.90;;;;;;5096317;28;20877;-80
2021/08/04 11:59:02;;;;;;;12.33;11.33;;;22.10;99.90;;;;;;5097707;28;20469;-80
2021/08/04 12:01:31;;;;;;;14.00;10.43;;;22.30;99.90;;;;;;5094062;28;20477;-80
2021/08/04 12:04:09;;;;;;;12.23;11.23;;;22.40;99.90;;;;;;5099458;28;20959;-80
2021/08/04 12:06:38;;;;;;;13.57;12.20;;;22.60;99.90;;;;;;5097523;28;20836;-79
2021/08/04 12:09:22;;;;;;;11.97;10.77;;;22.60;99.90;;;;;;5098066;28;20449;-80
2021/08/04 12:11:49;;;;;;;11.83;10.87;;;22.70;99.90;;;;;;5098462;28;20457;-81
2021/08/04 12:14:19;;;;;;;11.70;10.60;;;22.70;99.90;;;;;;5094074;28;20857;-80
2021/08/04 12:16:50;;;;;;;11.10;10.03;;;22.80;99.90;;;;;;5093905;28;20469;-80
2021/08/04 12:19:28;;;;;;;11.63;10.63;;;22.70;99.90;;;;;;5099857;28;20464;-80
2021/08/04 12:21:56;;;;;;;12.60;11.30;;;22.70;99.90;;;;;;5093873;28;20487;-80
2021/08/04 12:24:23;;;;;;;17.53;12.70;;;22.70;99.90;;;;;;5098821;28;22715;-80
2021/08/04 12:26:50;;;;;;;10.97;9.97;;;22.70;99.90;;;;;;5100786;28;20467;-82
2021/08/04 12:29:19;;;;;;;11.00;10.10;;;22.80;99.90;;;;;;5095751;28;20461;-80
2021/08/04 12:32:06;;;;;;;11.20;10.40;;;22.80;99.90;;;;;;5089102;28;20456;-80
2021/08/04 12:34:42;;;;;;;10.33;9.53;;;22.90;99.90;;;;;;5093634;28;20459;-80
2021/08/04 12:37:10;;;;;;;12.10;10.20;;;23.00;99.90;;;;;;5093444;28;20467;-80
2021/08/04 12:39:39;;;;;;;14.00;10.13;;;23.10;99.90;;;;;;5088784;28;21009;-80
2021/08/04 12:42:06;;;;;;;11.97;10.77;;;23.10;99.90;;;;;;5096990;28;20493;-80